createdAt,value
2022-08-10T00:01:53.614Z,21.90
2022-08-10T00:04:25.395Z,21.85
2022-08-10T00:06:55.132Z,21.94
2022-08-10T00:09:24.812Z,21.65
2022-08-10T00:11:52.796Z,21.89
2022-08-10T00:14:22.267Z,21.66
2022-08-10T00:16:50.587Z,21.84
2022-08-10T00:19:18.897Z,21.81
2022-08-10T00:21:47.755Z,21.94
2022-08-10T00:24:16.397Z,21.74
2022-08-10T00:28:01.009Z,21.67
2022-08-10T00:29:34.078Z,21.55
2022-08-10T00:32:02.103Z,21.59
2022-08-10T00:34:31.159Z,21.58
2022-08-10T00:37:00.218Z,21.58
2022-08-10T00:39:29.356Z,21.63
2022-08-10T00:42:02.315Z,21.57
2022-08-10T00:44:39.379Z,21.50
2022-08-10T00:47:35.908Z,21.43
2022-08-10T00:49:56.553Z,21.50
2022-08-10T00:52:25.266Z,21.52
2022-08-10T00:54:53.553Z,21.55
2022-08-10T00:57:22.135Z,21.44
2022-08-10T00:59:58.955Z,21.50
2022-08-10T01:02:29.863Z,21.39
2022-08-10T01:05:01.675Z,21.42
2022-08-10T01:07:43.854Z,21.27
2022-08-10T01:10:23.923Z,21.21
2022-08-10T01:12:57.850Z,21.26
2022-08-10T01:15:32.214Z,21.14
2022-08-10T01:18:05.740Z,21.29
2022-08-10T01:20:39.915Z,21.06
2022-08-10T01:23:44.153Z,21.17
2022-08-10T01:26:37.412Z,21.17
2022-08-10T01:29:53.559Z,20.97
2022-08-10T01:32:32.404Z,20.93
2022-08-10T01:35:12.075Z,20.95
2022-08-10T01:37:51.702Z,20.85
2022-08-10T01:40:25.724Z,20.85
2022-08-10T01:42:55.765Z,20.85
2022-08-10T01:45:29.829Z,20.92
2022-08-10T01:48:32.302Z,20.66
2022-08-10T01:51:15.509Z,20.54
2022-08-10T01:53:51.847Z,20.66
2022-08-10T01:56:22.467Z,20.61
2022-08-10T01:58:55.039Z,20.65
2022-08-10T02:01:26.606Z,20.71
2022-08-10T02:04:04.590Z,20.72
2022-08-10T02:06:36.753Z,20.51
2022-08-10T02:09:07.568Z,20.59
2022-08-10T02:12:06.377Z,20.37
2022-08-10T02:14:32.929Z,20.44
2022-08-10T02:17:03.084Z,20.50
2022-08-10T02:19:36.568Z,20.54
2022-08-10T02:22:37.565Z,20.42
2022-08-10T02:24:55.681Z,20.31
2022-08-10T02:27:26.078Z,20.38
2022-08-10T02:29:55.047Z,20.42
2022-08-10T02:32:36.314Z,20.42
2022-08-10T02:35:21.936Z,20.37
2022-08-10T02:37:52.224Z,20.22
2022-08-10T02:45:14.590Z,20.16
2022-08-10T02:45:18.088Z,20.34
2022-08-10T02:46:14.144Z,20.22
2022-08-10T02:48:48.222Z,20.15
2022-08-10T02:52:07.105Z,20.24
2022-08-10T02:54:15.714Z,20.12
2022-08-10T02:56:52.630Z,20.13
2022-08-10T02:59:24.872Z,20.01
2022-08-10T03:01:57.078Z,20.04
2022-08-10T03:04:56.189Z,19.91
2022-08-10T03:07:44.309Z,19.94
2022-08-10T03:10:14.946Z,19.76
2022-08-10T03:12:44.405Z,19.79
2022-08-10T03:15:15.586Z,19.94
2022-08-10T03:17:57.866Z,19.88
2022-08-10T03:20:38.467Z,19.84
2022-08-10T03:23:12.475Z,19.89
2022-08-10T03:25:40.920Z,19.77
2022-08-10T03:28:20.881Z,19.83
2022-08-10T03:30:50.310Z,19.87
2022-08-10T03:33:19.088Z,19.83
2022-08-10T03:36:42.532Z,19.83
2022-08-10T03:38:36.777Z,19.85
2022-08-10T03:41:06.278Z,19.64
2022-08-10T03:43:35.376Z,19.66
2022-08-10T03:46:09.491Z,19.62
2022-08-10T03:48:49.455Z,19.58
2022-08-10T03:51:19.806Z,19.64
2022-08-10T03:54:05.248Z,19.72
2022-08-10T03:56:37.540Z,19.66
2022-08-10T03:59:07.074Z,19.68
2022-08-10T04:02:47.140Z,19.66
2022-08-10T04:04:25.970Z,19.56
2022-08-10T04:06:55.996Z,19.60
2022-08-10T04:09:43.048Z,19.55
2022-08-10T04:12:16.300Z,19.61
2022-08-10T04:14:50.007Z,19.74
2022-08-10T04:18:03.876Z,19.83
2022-08-10T04:20:12.968Z,19.70
2022-08-10T04:22:42.546Z,19.73
2022-08-10T04:25:14.145Z,19.79
2022-08-10T04:27:43.123Z,19.83
2022-08-10T04:30:11.893Z,19.72
2022-08-10T04:32:41.851Z,19.82
2022-08-10T04:35:11.741Z,19.77
2022-08-10T04:37:47.150Z,19.58
2022-08-10T04:40:28.891Z,19.82
2022-08-10T04:43:01.409Z,19.77
2022-08-10T04:45:48.971Z,19.95
2022-08-10T04:48:41.388Z,19.95
2022-08-10T04:51:18.160Z,19.55
2022-08-10T04:54:02.698Z,19.83
2022-08-10T04:56:36.669Z,19.95
2022-08-10T04:59:06.266Z,19.78
2022-08-10T05:02:12.099Z,19.75
2022-08-10T05:04:36.351Z,19.72
2022-08-10T05:07:10.702Z,19.77
2022-08-10T05:10:03.908Z,20.00
2022-08-10T05:12:29.435Z,19.80
2022-08-10T05:14:57.638Z,20.17
2022-08-10T05:17:25.721Z,19.98
2022-08-10T05:20:04.201Z,20.19
2022-08-10T05:22:35.686Z,20.10
2022-08-10T05:25:04.392Z,20.18
2022-08-10T05:27:34.019Z,19.85
2022-08-10T05:30:03.654Z,19.89
2022-08-10T05:32:32.692Z,20.03
2022-08-10T05:35:20.743Z,20.05
2022-08-10T05:38:13.275Z,20.11
2022-08-10T05:40:39.235Z,20.22
2022-08-10T05:43:08.720Z,20.00
2022-08-10T05:46:18.019Z,20.43
2022-08-10T05:48:58.223Z,20.77
2022-08-10T05:51:13.584Z,20.91
2022-08-10T05:54:01.557Z,20.87
2022-08-10T05:56:55.249Z,20.92
2022-08-10T06:00:31.185Z,20.82
2022-08-10T06:02:33.670Z,20.99
2022-08-10T06:04:59.793Z,20.75
2022-08-10T06:07:29.801Z,20.88
2022-08-10T06:10:00.392Z,20.58
2022-08-10T06:12:31.462Z,20.60
2022-08-10T06:15:06.035Z,20.85
2022-08-10T06:17:39.403Z,20.58
2022-08-10T06:20:08.367Z,20.93
2022-08-10T06:22:36.802Z,20.86
2022-08-10T06:26:08.454Z,21.00
2022-08-10T06:27:56.131Z,21.10
2022-08-10T06:30:27.113Z,21.07
2022-08-10T06:32:58.149Z,21.35
2022-08-10T06:35:28.867Z,21.42
2022-08-10T06:37:58.509Z,21.47
2022-08-10T06:40:28.734Z,21.60
2022-08-10T06:42:59.784Z,21.79
2022-08-10T06:45:34.724Z,21.61
2022-08-10T06:48:05.174Z,21.66
2022-08-10T06:50:55.975Z,21.59
2022-08-10T06:53:52.878Z,21.64
2022-08-10T06:56:36.613Z,21.81
2022-08-10T06:59:13.260Z,22.05
2022-08-10T07:01:58.618Z,22.11
2022-08-10T07:04:32.743Z,21.86
2022-08-10T07:07:05.069Z,22.25
2022-08-10T07:09:36.346Z,22.16
2022-08-10T07:12:08.575Z,21.96
2022-08-10T07:14:41.112Z,22.42
2022-08-10T07:17:15.730Z,22.18
2022-08-10T07:19:49.920Z,22.37
2022-08-10T07:23:26.911Z,22.44
2022-08-10T07:25:13.353Z,22.58
2022-08-10T07:27:59.617Z,22.58
2022-08-10T07:30:30.577Z,22.65
2022-08-10T07:33:01.458Z,22.52
2022-08-10T07:35:36.423Z,22.79
2022-08-10T07:38:07.407Z,22.90
2022-08-10T07:40:36.026Z,22.63
2022-08-10T07:43:04.558Z,22.88
2022-08-10T07:45:36.541Z,23.02
2022-08-10T07:48:10.746Z,23.13
2022-08-10T07:50:40.989Z,23.07
2022-08-10T07:53:13.950Z,23.69
2022-08-10T07:56:04.831Z,23.56
2022-08-10T07:58:35.241Z,23.30
2022-08-10T08:01:03.488Z,23.51
2022-08-10T08:03:34.870Z,23.71
2022-08-10T08:06:12.139Z,23.73
2022-08-10T08:08:43.781Z,24.01
2022-08-10T08:11:25.799Z,23.68
2022-08-10T08:13:55.661Z,23.85
2022-08-10T08:16:24.987Z,23.96
2022-08-10T08:24:07.522Z,24.22
2022-08-10T08:24:37.278Z,24.14
2022-08-10T08:27:07.705Z,24.17
2022-08-10T08:29:38.401Z,24.05
2022-08-10T08:32:08.089Z,24.20
2022-08-10T08:34:40.138Z,24.10
2022-08-10T08:37:10.380Z,24.36
2022-08-10T08:39:40.294Z,24.31
2022-08-10T08:42:19.479Z,24.50
2022-08-10T08:45:04.463Z,24.57
2022-08-10T08:48:04.961Z,24.84
2022-08-10T08:50:48.478Z,24.90
2022-08-10T08:54:02.848Z,25.03
2022-08-10T08:56:32.279Z,24.94
2022-08-10T08:59:19.127Z,24.93
2022-08-10T09:02:01.849Z,25.05
2022-08-10T09:04:48.296Z,25.19
2022-08-10T09:08:00.809Z,25.36
2022-08-10T09:10:38.243Z,25.33
2022-08-10T09:13:14.859Z,25.25
2022-08-10T09:15:52.439Z,25.55
2022-08-10T09:18:25.015Z,25.68
2022-08-10T09:21:01.940Z,26.03
2022-08-10T09:24:05.081Z,26.96
2022-08-10T09:26:36.749Z,28.15
2022-08-10T09:29:13.263Z,28.37
2022-08-10T09:33:06.179Z,28.58
2022-08-10T09:36:23.684Z,29.06
2022-08-10T09:38:01.053Z,29.47
2022-08-10T09:40:59.482Z,28.80
2022-08-10T09:43:37.378Z,30.03
2022-08-10T09:46:14.536Z,30.55
2022-08-10T09:48:52.539Z,30.81
2022-08-10T09:51:48.210Z,30.82
2022-08-10T09:54:31.221Z,31.03
2022-08-10T10:00:08.653Z,31.90
2022-08-10T10:02:43.410Z,30.39
2022-08-10T10:05:30.899Z,30.79
2022-08-10T10:08:08.402Z,31.41
2022-08-10T10:10:47.397Z,31.98
2022-08-10T10:13:50.059Z,32.68
2022-08-10T10:16:29.179Z,32.58
2022-08-10T10:19:08.965Z,32.56
2022-08-10T10:21:55.765Z,32.81
2022-08-10T10:24:34.398Z,32.92
2022-08-10T10:27:16.306Z,32.27
2022-08-10T10:29:59.505Z,31.98
2022-08-10T10:32:40.377Z,32.91
2022-08-10T10:35:20.894Z,32.47
2022-08-10T10:38:02.603Z,32.12
2022-08-10T10:40:38.727Z,32.82
2022-08-10T10:43:15.653Z,32.51
2022-08-10T10:45:58.962Z,32.58
2022-08-10T10:48:29.832Z,32.96
2022-08-10T10:51:10.483Z,32.46
2022-08-10T10:53:45.180Z,32.73
2022-08-10T10:56:21.548Z,33.37
2022-08-10T10:59:00.007Z,33.64
2022-08-10T11:01:39.460Z,34.17
2022-08-10T11:04:17.337Z,33.61
2022-08-10T11:06:58.249Z,32.55
2022-08-10T11:10:07.011Z,33.31
2022-08-10T11:12:29.715Z,32.96
2022-08-10T11:15:05.649Z,32.38
2022-08-10T11:17:41.580Z,32.75
2022-08-10T11:20:16.808Z,33.25
2022-08-10T11:22:51.881Z,33.19
2022-08-10T11:25:27.584Z,32.91
2022-08-10T11:28:11.843Z,33.29
2022-08-10T11:30:46.929Z,33.39
2022-08-10T11:33:24.366Z,33.15
2022-08-10T11:36:04.507Z,32.84
2022-08-10T11:39:04.113Z,32.70
2022-08-10T11:42:11.752Z,32.91
2022-08-10T11:44:33.132Z,33.00
2022-08-10T11:47:05.913Z,32.97
2022-08-10T11:49:46.417Z,33.74
2022-08-10T11:52:20.904Z,33.38
2022-08-10T11:54:54.473Z,33.37
2022-08-10T11:57:53.243Z,33.77
2022-08-10T12:00:17.553Z,33.48
2022-08-10T12:02:50.248Z,33.95
2022-08-10T12:05:21.077Z,33.24
2022-08-10T12:10:07.124Z,33.31
2022-08-10T12:10:42.909Z,33.92
2022-08-10T12:13:16.357Z,32.98
2022-08-10T12:15:52.349Z,33.29
2022-08-10T12:18:28.073Z,33.17
2022-08-10T12:21:01.949Z,33.27
2022-08-10T12:23:39.309Z,33.56
2022-08-10T12:26:13.912Z,33.66
2022-08-10T12:28:50.263Z,33.26
2022-08-10T12:31:23.982Z,33.27
2022-08-10T12:34:05.407Z,33.13
2022-08-10T12:36:41.495Z,32.86
2022-08-10T12:39:16.535Z,33.08
2022-08-10T12:41:51.003Z,32.56
2022-08-10T12:44:41.367Z,32.83
2022-08-10T12:47:21.701Z,33.17
2022-08-10T12:50:31.426Z,33.14
2022-08-10T12:53:07.601Z,32.87
2022-08-10T12:55:39.324Z,31.89
2022-08-10T12:58:59.043Z,31.68
2022-08-10T13:01:16.178Z,32.75
2022-08-10T13:04:22.950Z,32.44
2022-08-10T13:06:41.622Z,32.38
2022-08-10T13:09:10.126Z,32.48
2022-08-10T13:12:35.041Z,32.75
2022-08-10T13:14:42.242Z,32.39
2022-08-10T13:17:10.926Z,32.74
2022-08-10T13:19:54.807Z,32.69
2022-08-10T13:22:30.276Z,32.29
2022-08-10T13:25:04.606Z,32.17
2022-08-10T13:28:00.736Z,32.60
2022-08-10T13:30:33.695Z,32.77
2022-08-10T13:33:08.626Z,31.94
2022-08-10T13:35:37.518Z,32.06
2022-08-10T13:38:08.217Z,31.71
2022-08-10T13:40:39.573Z,31.99
2022-08-10T13:43:09.800Z,31.70
2022-08-10T13:45:49.231Z,32.05
2022-08-10T13:48:21.633Z,32.14
2022-08-10T13:50:52.722Z,32.01
2022-08-10T13:53:23.627Z,32.00
2022-08-10T13:55:57.019Z,31.78
2022-08-10T13:58:29.969Z,32.02
2022-08-10T14:00:59.962Z,31.87
2022-08-10T14:03:29.864Z,31.58
2022-08-10T14:05:59.685Z,32.03
2022-08-10T14:08:32.413Z,31.85
2022-08-10T14:11:11.225Z,31.74
2022-08-10T14:13:45.107Z,32.13
2022-08-10T14:16:14.407Z,31.99
2022-08-10T14:18:45.802Z,31.99
2022-08-10T14:21:15.055Z,30.63
2022-08-10T14:23:52.720Z,31.31
2022-08-10T14:26:26.309Z,31.72
2022-08-10T14:28:58.304Z,31.88
2022-08-10T14:31:34.513Z,31.71
2022-08-10T14:34:05.808Z,31.63
2022-08-10T14:36:43.293Z,31.74
2022-08-10T14:39:15.935Z,31.79
2022-08-10T14:42:03.001Z,31.29
2022-08-10T14:44:46.228Z,31.54
2022-08-10T14:47:54.167Z,31.76
2022-08-10T14:50:06.008Z,31.55
2022-08-10T14:52:44.038Z,31.45
2022-08-10T14:55:19.414Z,31.85
2022-08-10T14:58:19.318Z,31.86
2022-08-10T15:00:43.144Z,31.74
2022-08-10T15:04:01.920Z,31.27
2022-08-10T15:06:09.254Z,31.78
2022-08-10T15:08:47.500Z,31.38
2022-08-10T15:12:12.975Z,30.68
2022-08-10T15:14:34.142Z,30.99
2022-08-10T15:16:58.328Z,30.99
2022-08-10T15:20:01.492Z,31.17
2022-08-10T15:22:47.398Z,31.10
2022-08-10T15:25:17.864Z,31.52
2022-08-10T15:27:54.021Z,31.17
2022-08-10T15:30:32.050Z,31.30
2022-08-10T15:33:57.429Z,31.27
2022-08-10T15:36:39.806Z,31.28
2022-08-10T15:39:14.121Z,30.68
2022-08-10T15:42:03.639Z,31.07
2022-08-10T15:44:36.643Z,31.16
2022-08-10T15:47:10.687Z,31.21
2022-08-10T15:49:45.470Z,31.09
2022-08-10T15:52:39.362Z,31.16
2022-08-10T15:55:42.363Z,31.36
2022-08-10T15:58:06.781Z,31.42
2022-08-10T16:00:39.244Z,30.94
2022-08-10T16:03:15.861Z,30.93
2022-08-10T16:06:01.722Z,30.96
2022-08-10T16:08:55.943Z,30.87
2022-08-10T16:11:37.411Z,30.97
2022-08-10T16:14:14.589Z,30.22
2022-08-10T16:16:47.090Z,30.22
2022-08-10T16:19:25.082Z,30.45
2022-08-10T16:21:59.868Z,30.84
2022-08-10T16:24:33.679Z,30.92
2022-08-10T16:27:06.480Z,30.98
2022-08-10T16:29:55.804Z,31.00
2022-08-10T16:32:26.655Z,30.71
2022-08-10T16:34:57.562Z,30.90
2022-08-10T16:37:57.881Z,31.07
2022-08-10T16:40:26.837Z,30.99
2022-08-10T16:42:56.236Z,30.70
2022-08-10T16:45:31.754Z,30.81
2022-08-10T16:48:00.522Z,31.02
2022-08-10T16:50:41.443Z,31.02
2022-08-10T16:53:15.582Z,30.79
2022-08-10T16:55:50.608Z,30.54
2022-08-10T16:58:27.255Z,30.69
2022-08-10T17:01:01.770Z,30.67
2022-08-10T17:04:08.303Z,30.57
2022-08-10T17:06:24.841Z,30.51
2022-08-10T17:08:56.557Z,30.57
2022-08-10T17:11:30.845Z,30.43
2022-08-10T17:14:00.158Z,30.46
2022-08-10T17:16:35.583Z,30.59
2022-08-10T17:19:04.664Z,30.49
2022-08-10T17:21:50.992Z,30.42
2022-08-10T17:24:23.786Z,30.34
2022-08-10T17:26:52.849Z,30.47
2022-08-10T17:29:59.098Z,30.24
2022-08-10T17:32:20.736Z,30.12
2022-08-10T17:34:53.997Z,29.97
2022-08-10T17:37:27.537Z,30.10
2022-08-10T17:39:59.821Z,30.09
2022-08-10T17:42:28.674Z,29.90
2022-08-10T17:44:58.033Z,29.83
2022-08-10T17:47:28.071Z,29.72
2022-08-10T17:49:57.972Z,29.81
2022-08-10T17:52:31.701Z,29.80
2022-08-10T17:55:04.179Z,29.71
2022-08-10T17:57:37.721Z,29.70
2022-08-10T18:00:08.112Z,29.58
2022-08-10T18:02:40.225Z,29.56
2022-08-10T18:05:10.919Z,29.37
2022-08-10T18:07:46.611Z,29.12
2022-08-10T18:10:18.842Z,29.34
2022-08-10T18:12:50.275Z,29.38
2022-08-10T18:15:22.065Z,29.29
2022-08-10T18:17:58.329Z,29.27
2022-08-10T18:20:33.806Z,29.22
2022-08-10T18:23:04.502Z,29.21
2022-08-10T18:25:35.999Z,29.13
2022-08-10T18:28:06.668Z,29.07
2022-08-10T18:30:45.433Z,29.03
2022-08-10T18:33:15.429Z,28.85
2022-08-10T18:35:46.137Z,28.92
2022-08-10T18:38:17.248Z,28.71
2022-08-10T18:40:52.712Z,28.75
2022-08-10T18:44:09.859Z,28.55
2022-08-10T18:46:17.916Z,28.71
2022-08-10T18:48:53.110Z,28.62
2022-08-10T18:51:26.314Z,28.59
2022-08-10T18:53:58.626Z,28.54
2022-08-10T18:56:39.866Z,28.46
2022-08-10T18:59:21.967Z,28.42
2022-08-10T19:02:08.708Z,28.30
2022-08-10T19:04:51.165Z,28.29
2022-08-10T19:07:46.458Z,28.22
2022-08-10T19:10:29.102Z,28.00
2022-08-10T19:13:05.376Z,28.03
2022-08-10T19:15:42.192Z,28.01
2022-08-10T19:18:23.988Z,27.91
2022-08-10T19:21:02.025Z,27.81
2022-08-10T19:23:45.044Z,27.74
2022-08-10T19:26:44.990Z,27.65
2022-08-10T19:30:09.984Z,27.47
2022-08-10T19:32:28.798Z,27.44
2022-08-10T19:35:05.119Z,27.18
2022-08-10T19:37:42.993Z,27.26
2022-08-10T19:40:44.551Z,27.36
2022-08-10T19:44:00.807Z,27.36
2022-08-10T19:46:18.902Z,27.28
2022-08-10T19:48:57.009Z,27.26
2022-08-10T19:51:29.789Z,27.16
2022-08-10T19:54:03.891Z,27.10
2022-08-10T19:56:44.772Z,27.00
2022-08-10T20:00:16.346Z,27.00
2022-08-10T20:02:25.808Z,26.99
2022-08-10T20:05:02.661Z,27.07
2022-08-10T20:07:37.840Z,26.83
2022-08-10T20:10:14.180Z,26.49
2022-08-10T20:12:51.367Z,26.52
2022-08-10T20:15:30.413Z,26.59
2022-08-10T20:18:06.809Z,26.51
2022-08-10T20:20:49.501Z,26.60
2022-08-10T20:23:20.931Z,26.42
2022-08-10T20:25:56.695Z,26.43
2022-08-10T20:28:35.373Z,26.38
2022-08-10T20:31:17.242Z,26.51
2022-08-10T20:33:57.412Z,26.34
2022-08-10T20:36:32.273Z,26.12
2022-08-10T20:39:13.109Z,26.15
2022-08-10T20:41:56.089Z,26.09
2022-08-10T20:44:44.688Z,26.03
2022-08-10T20:47:20.715Z,26.10
2022-08-10T20:49:58.551Z,25.99
2022-08-10T20:52:27.153Z,25.87
2022-08-10T20:54:59.134Z,25.98
2022-08-10T20:58:02.722Z,25.99
2022-08-10T21:00:50.585Z,25.96
2022-08-10T21:03:44.059Z,25.55
2022-08-10T21:06:43.271Z,25.85
2022-08-10T21:09:25.569Z,25.89
2022-08-10T21:12:18.699Z,25.54
2022-08-10T21:14:55.281Z,25.40
2022-08-10T21:17:48.427Z,25.77
2022-08-10T21:20:35.982Z,25.44
2022-08-10T21:23:08.633Z,25.38
2022-08-10T21:25:45.629Z,25.53
2022-08-10T21:28:38.552Z,25.63
2022-08-10T21:31:22.069Z,25.43
2022-08-10T21:34:06.389Z,25.34
2022-08-10T21:36:41.572Z,25.30
2022-08-10T21:39:19.848Z,25.37
2022-08-10T21:42:14.612Z,25.53
2022-08-10T21:45:11.498Z,25.48
2022-08-10T21:48:17.306Z,25.33
2022-08-10T21:51:16.633Z,25.47
2022-08-10T21:54:20.412Z,25.10
2022-08-10T21:57:21.310Z,25.11
2022-08-10T22:00:11.949Z,25.19
2022-08-10T22:02:58.984Z,25.02
2022-08-10T22:05:47.843Z,25.07
2022-08-10T22:08:37.264Z,25.14
2022-08-10T22:11:27.723Z,25.06
2022-08-10T22:14:14.995Z,25.20
2022-08-10T22:17:04.745Z,25.13
2022-08-10T22:19:54.021Z,25.06
2022-08-10T22:22:56.062Z,25.01
2022-08-10T22:26:00.465Z,25.04
2022-08-10T22:28:48.748Z,25.01
2022-08-10T22:31:51.696Z,24.92
2022-08-10T22:35:04.317Z,24.92
2022-08-10T22:38:07.971Z,24.93
2022-08-10T22:40:54.044Z,24.60
2022-08-10T22:43:45.352Z,24.78
2022-08-10T22:46:37.331Z,24.61
2022-08-10T22:49:04.951Z,24.60
2022-08-10T22:51:51.977Z,24.59
2022-08-10T22:54:41.623Z,24.52
2022-08-10T22:57:31.800Z,24.49
2022-08-10T23:00:00.267Z,24.58
2022-08-10T23:02:33.648Z,24.53
2022-08-10T23:05:09.154Z,24.36
2022-08-10T23:07:46.340Z,24.29
2022-08-10T23:10:16.132Z,24.22
2022-08-10T23:12:50.863Z,24.17
2022-08-10T23:15:46.359Z,24.10
2022-08-10T23:18:39.500Z,24.19
2022-08-10T23:21:13.506Z,24.30
2022-08-10T23:23:43.187Z,24.10
2022-08-10T23:26:15.266Z,24.13
2022-08-10T23:29:03.245Z,23.99
2022-08-10T23:31:54.312Z,24.06
2022-08-10T23:34:27.641Z,23.85
2022-08-10T23:36:58.774Z,24.01
2022-08-10T23:39:35.849Z,23.90
2022-08-10T23:42:07.913Z,23.92
2022-08-10T23:44:39.110Z,23.82
2022-08-10T23:47:09.493Z,23.85
2022-08-10T23:49:40.527Z,23.87
2022-08-10T23:52:14.272Z,23.62
2022-08-10T23:54:45.659Z,23.57
2022-08-10T23:57:18.098Z,23.52
2022-08-10T23:59:52.213Z,23.64
